Terminal Aerodrome Forecast
Issued by NWS

Home | Current Version | Previous Version | Text Only | Print | Product List | Glossary Off
Versions: 1 2 3 4 5 6 7 8 9 10 11 12 13 14 15 16 17

000
FTUS43 KTOP 121100
TAFMHK
TAF
KMHK 121125Z 1212/1312 04006KT 5SM -SHRA BR BKN007
      TEMPO 1212/1215 3SM -RA BR SCT007 BKN015
     FM121700 02011KT P6SM VCSH OVC015
     FM121900 03009KT P6SM BKN025
     FM130300 36001KT P6SM SKC=

USA.gov is the U.S. government's official web portal to all federal, state and local government web resources and services.